Time;durP1;ratioP1;P1;durP2;ratioP2;P2;SDS_P1;SDS_P2;PMS_P1;PMS_P2;Temp;Humidity;BMP_temperature;BMP_pressure;BME280_temperature;BME280_humidity;BME280_pressure;Samples;Min_cycle;Max_cycle;Signal;HPM_P1;HPM_P2
2022/07/05 00:01:10;;;;;;;0.50;0.50;;;;;;;22.16;39.90;101492.72;5187829;28;20087;-79
2022/07/05 00:03:41;;;;;;;0.98;0.90;;;;;;;22.14;39.59;101490.16;5203774;28;20410;-84
2022/07/05 00:06:12;;;;;;;0.25;0.25;;;;;;;22.06;39.95;101487.13;5187619;28;20048;-82
2022/07/05 00:08:42;;;;;;;0.50;0.50;;;;;;;22.04;39.63;101489.03;5187721;28;20064;-81
2022/07/05 00:11:13;;;;;;;1.23;1.13;;;;;;;22.07;39.75;101490.63;5184101;28;20033;-79
2022/07/05 00:13:43;;;;;;;0.70;0.70;;;;;;;22.00;40.23;101495.50;5207626;28;20044;-82
2022/07/05 00:16:14;;;;;;;0.38;0.38;;;;;;;21.96;40.09;101492.16;5218683;28;20556;-82
2022/07/05 00:18:45;;;;;;;0.47;0.47;;;;;;;21.97;39.90;101488.53;5180158;28;20250;-81
2022/07/05 00:21:18;;;;;;;0.65;0.32;;;;;;;21.93;39.96;101480.81;5209292;28;20041;-82
2022/07/05 00:23:48;;;;;;;0.40;0.40;;;;;;;21.87;40.08;101492.75;5189002;28;20032;-82
2022/07/05 00:26:21;;;;;;;0.20;0.20;;;;;;;21.84;40.00;101492.94;5220266;28;20640;-81
2022/07/05 00:28:53;;;;;;;1.75;1.10;;;;;;;21.80;40.01;101492.28;5185538;28;20128;-81
2022/07/05 00:31:23;;;;;;;0.43;0.43;;;;;;;21.80;40.17;101491.41;5201506;28;20080;-82
2022/07/05 00:33:54;;;;;;;0.20;0.20;;;;;;;21.77;40.21;101481.78;5205885;28;20083;-81
2022/07/05 00:36:24;;;;;;;1.55;0.73;;;;;;;21.73;40.09;101485.63;5221330;28;20500;-83
2022/07/05 00:38:55;;;;;;;0.30;0.30;;;;;;;21.73;40.53;101490.97;5186717;28;20400;-82
2022/07/05 00:41:25;;;;;;;0.25;0.25;;;;;;;21.72;40.34;101504.38;5186518;28;20792;-81
2022/07/05 00:44:04;;;;;;;0.40;0.40;;;;;;;21.66;40.89;101498.47;5195506;28;20029;-82
2022/07/05 00:46:36;;;;;;;0.22;0.22;;;;;;;21.67;40.28;101493.97;5187381;28;20528;-79
2022/07/05 00:49:07;;;;;;;0.43;0.43;;;;;;;21.62;40.49;101494.25;5199024;28;20037;-79
2022/07/05 00:51:40;;;;;;;0.30;0.30;;;;;;;21.58;40.67;101495.44;5201246;28;20049;-83
2022/07/05 00:54:13;;;;;;;0.60;0.60;;;;;;;21.57;40.56;101490.16;5187684;28;20068;-79
2022/07/05 00:56:44;;;;;;;0.30;0.30;;;;;;;21.53;40.59;101500.13;5169234;28;20706;-82
2022/07/05 00:59:14;;;;;;;0.73;0.73;;;;;;;21.52;40.56;101503.78;5190139;28;20033;-82
2022/07/05 01:01:45;;;;;;;0.30;0.30;;;;;;;21.48;40.59;101496.91;5204658;28;20044;-80
2022/07/05 01:04:15;;;;;;;0.20;0.20;;;;;;;21.48;40.82;101497.78;5181179;28;20029;-79
2022/07/05 01:06:49;;;;;;;0.47;0.45;;;;;;;21.45;40.82;101503.28;5176737;28;20528;-81
2022/07/05 01:09:21;;;;;;;0.55;0.55;;;;;;;21.44;41.15;101498.91;5199021;28;20110;-79
2022/07/05 01:11:52;;;;;;;0.30;0.30;;;;;;;21.39;40.99;101499.19;5182014;28;20059;-79
2022/07/05 01:14:23;;;;;;;0.68;0.68;;;;;;;21.35;40.96;101497.66;5183861;28;20037;-80
2022/07/05 01:16:56;;;;;;;0.68;0.68;;;;;;;21.34;41.02;101500.41;5183987;28;20044;-80
2022/07/05 01:19:27;;;;;;;0.30;0.30;;;;;;;21.30;41.14;101504.22;5219197;28;20043;-80
2022/07/05 01:22:07;;;;;;;2.08;0.70;;;;;;;21.28;40.86;101498.94;5216663;28;20036;-80
2022/07/05 01:24:38;;;;;;;0.30;0.30;;;;;;;21.23;41.11;101499.25;5187036;28;20557;-79
2022/07/05 01:27:09;;;;;;;0.30;0.30;;;;;;;21.21;41.11;101505.63;5182988;28;20124;-79
2022/07/05 01:29:41;;;;;;;0.38;0.38;;;;;;;21.17;41.44;101494.25;5202103;28;20140;-82
2022/07/05 01:32:13;;;;;;;2.17;0.50;;;;;;;21.14;41.48;101497.13;5184143;28;20143;-81
2022/07/05 01:34:43;;;;;;;0.90;0.90;;;;;;;21.12;41.54;101501.69;5215461;28;20052;-82
2022/07/05 01:37:14;;;;;;;0.47;0.47;;;;;;;21.09;41.50;101507.19;5183127;28;20480;-81
2022/07/05 01:39:45;;;;;;;0.40;0.40;;;;;;;21.07;41.80;101504.63;5185720;28;20104;-79
2022/07/05 01:42:16;;;;;;;0.30;0.30;;;;;;;21.04;41.68;101512.81;5214221;28;20107;-80
2022/07/05 01:44:47;;;;;;;0.57;0.45;;;;;;;21.00;41.96;101513.97;5197503;28;20056;-79
2022/07/05 01:47:17;;;;;;;0.40;0.40;;;;;;;20.95;42.16;101510.69;5183584;28;20041;-83
2022/07/05 01:49:51;;;;;;;0.35;0.35;;;;;;;20.95;41.91;101516.00;5173485;28;20029;-81
2022/07/05 01:52:24;;;;;;;22.40;1.77;;;;;;;20.90;41.68;101510.09;5177836;28;20044;-79
2022/07/05 01:54:54;;;;;;;0.40;0.40;;;;;;;20.87;41.69;101510.25;5211532;28;20440;-80
2022/07/05 01:57:25;;;;;;;0.40;0.40;;;;;;;20.85;41.93;101505.03;5183325;28;20053;-79
2022/07/05 01:59:59;;;;;;;0.20;0.20;;;;;;;20.85;41.98;101499.69;5206467;28;20029;-79
2022/07/05 02:02:32;;;;;;;0.60;0.60;;;;;;;20.81;41.96;101497.28;5190335;28;20360;-82
2022/07/05 02:05:03;;;;;;;7.97;1.38;;;;;;;20.79;42.06;101501.84;5206555;28;20025;-82
2022/07/05 02:07:33;;;;;;;0.30;0.30;;;;;;;20.77;42.09;101495.78;5185660;28;20118;-80
2022/07/05 02:10:07;;;;;;;0.45;0.45;;;;;;;20.74;42.29;101492.31;5184877;28;20021;-81
2022/07/05 02:12:41;;;;;;;0.22;0.22;;;;;;;20.72;42.29;101490.66;5168063;28;20042;-79
2022/07/05 02:15:12;;;;;;;0.93;0.85;;;;;;;20.70;42.21;101490.75;5218495;28;20029;-80
2022/07/05 02:17:43;;;;;;;0.30;0.30;;;;;;;20.66;42.29;101494.53;5199289;28;20501;-81
2022/07/05 02:20:13;;;;;;;0.73;0.65;;;;;;;20.65;42.18;101492.81;5200647;28;20536;-83
2022/07/05 02:22:45;;;;;;;0.50;0.50;;;;;;;20.61;42.78;101491.28;5190012;28;20517;-79
2022/07/05 02:25:18;;;;;;;0.43;0.43;;;;;;;20.61;42.83;101491.28;5198532;28;20044;-79
2022/07/05 02:27:50;;;;;;;0.38;0.38;;;;;;;20.60;42.65;101497.56;5169017;28;20030;-80
2022/07/05 02:30:21;;;;;;;0.57;0.57;;;;;;;20.56;42.67;101491.56;5200339;28;20025;-82
2022/07/05 02:32:51;;;;;;;2.50;1.60;;;;;;;20.54;43.13;101495.22;5200281;28;20182;-80
2022/07/05 02:35:22;;;;;;;2.75;0.82;;;;;;;20.48;42.95;101495.59;5182590;28;20547;-81
2022/07/05 02:37:52;;;;;;;0.52;0.50;;;;;;;20.48;43.15;101496.47;5185582;28;20037;-81
2022/07/05 02:40:23;;;;;;;2.17;1.00;;;;;;;20.44;42.69;101494.91;5189107;28;20021;-81
2022/07/05 02:42:53;;;;;;;0.40;0.40;;;;;;;20.42;42.66;101510.13;5201909;28;20496;-81
2022/07/05 02:45:24;;;;;;;0.43;0.43;;;;;;;20.39;42.88;101508.47;5203482;28;20067;-81
2022/07/05 02:47:54;;;;;;;0.40;0.40;;;;;;;20.37;43.07;101498.88;5195956;28;20082;-81
2022/07/05 02:50:30;;;;;;;0.40;0.40;;;;;;;20.36;43.19;101510.47;5185183;28;20681;-82
2022/07/05 02:53:01;;;;;;;0.22;0.22;;;;;;;20.34;43.16;101505.22;5185594;28;20633;-79
2022/07/05 02:55:34;;;;;;;0.55;0.55;;;;;;;20.31;43.25;101499.22;5204612;28;20272;-79
2022/07/05 02:58:04;;;;;;;1.38;0.90;;;;;;;20.30;43.34;101503.66;5226417;28;20025;-79
2022/07/05 03:00:35;;;;;;;3.13;1.27;;;;;;;20.26;43.30;101513.63;5204222;28;20037;-79
2022/07/05 03:03:09;;;;;;;0.30;0.30;;;;;;;20.24;43.33;101509.34;5192442;28;20017;-83
2022/07/05 03:05:40;;;;;;;1.20;1.10;;;;;;;20.20;43.75;101508.66;5194962;28;20060;-80
2022/07/05 03:08:14;;;;;;;0.50;0.47;;;;;;;20.16;43.81;101508.91;5204258;28;20109;-82
2022/07/05 03:10:45;;;;;;;0.40;0.40;;;;;;;20.12;43.75;101511.72;5189446;28;20514;-81
2022/07/05 03:13:15;;;;;;;0.20;0.20;;;;;;;20.11;43.77;101515.38;5204608;28;20049;-81
2022/07/05 03:15:46;;;;;;;0.40;0.40;;;;;;;20.10;43.81;101523.41;5191060;28;20127;-80
2022/07/05 03:18:16;;;;;;;0.80;0.60;;;;;;;20.07;44.02;101519.13;5221817;28;20374;-82
2022/07/05 03:20:47;;;;;;;0.60;0.60;;;;;;;20.04;44.12;101524.59;5184912;28;20513;-79
2022/07/05 03:23:17;;;;;;;0.80;0.80;;;;;;;20.02;44.13;101515.88;5184801;28;20542;-80
2022/07/05 03:25:48;;;;;;;0.20;0.20;;;;;;;20.00;44.23;101523.06;5187303;28;20529;-80
2022/07/05 03:28:18;;;;;;;0.30;0.30;;;;;;;19.96;43.98;101519.72;5208466;28;20044;-81
2022/07/05 03:30:49;;;;;;;0.20;0.20;;;;;;;19.97;44.26;101524.09;5202929;28;20037;-79
2022/07/05 03:33:22;;;;;;;0.40;0.40;;;;;;;19.95;44.08;101527.81;5212942;28;20029;-79
2022/07/05 03:35:53;;;;;;;0.30;0.30;;;;;;;19.90;44.24;101530.72;5216560;28;20037;-79
2022/07/05 03:38:23;;;;;;;4.88;1.75;;;;;;;19.89;44.60;101534.31;5184863;28;20067;-78
2022/07/05 03:40:54;;;;;;;0.43;0.43;;;;;;;19.89;44.35;101531.66;5198205;28;20168;-79
2022/07/05 03:43:24;;;;;;;0.65;0.65;;;;;;;19.87;44.74;101528.19;5183123;28;20041;-78
2022/07/05 03:45:55;;;;;;;0.32;0.32;;;;;;;19.88;44.49;101531.72;5199234;28;20045;-78
2022/07/05 03:48:26;;;;;;;2.65;0.52;;;;;;;19.86;44.51;101530.94;5203845;28;20043;-78
2022/07/05 03:51:17;;;;;;;0.65;0.65;;;;;;;19.87;44.76;101522.03;5190086;28;20123;-78
2022/07/05 03:53:48;;;;;;;0.93;0.93;;;;;;;19.86;44.97;101531.81;5186724;28;20029;-78
2022/07/05 03:56:22;;;;;;;0.30;0.30;;;;;;;19.82;44.73;101531.06;5190671;28;20037;-79
2022/07/05 03:58:52;;;;;;;0.28;0.28;;;;;;;19.84;44.98;101532.78;5210517;28;20047;-79
2022/07/05 04:01:26;;;;;;;0.40;0.40;;;;;;;19.80;44.96;101532.94;5185982;28;20350;-80
2022/07/05 04:03:57;;;;;;;0.98;0.98;;;;;;;19.82;44.90;101530.22;5183293;28;20033;-80
2022/07/05 04:06:27;;;;;;;0.50;0.50;;;;;;;19.80;45.02;101529.44;5184966;28;20037;-80
2022/07/05 04:08:58;;;;;;;1.35;1.30;;;;;;;19.79;45.09;101528.56;5171261;28;20593;-80
2022/07/05 04:11:28;;;;;;;0.40;0.40;;;;;;;19.77;45.16;101525.16;5186608;28;20130;-80
2022/07/05 04:13:59;;;;;;;0.57;0.57;;;;;;;19.77;45.23;101527.81;5189604;28;20043;-78
2022/07/05 04:16:29;;;;;;;0.47;0.47;;;;;;;19.76;45.07;101523.41;5220993;28;20153;-79
2022/07/05 04:19:00;;;;;;;0.63;0.50;;;;;;;19.75;45.29;101529.69;5186604;28;20029;-79
2022/07/05 04:21:30;;;;;;;0.65;0.65;;;;;;;19.75;45.36;101526.16;5200382;28;20037;-79
2022/07/05 04:24:01;;;;;;;0.70;0.70;;;;;;;19.74;45.42;101527.97;5207706;28;20754;-79
2022/07/05 04:26:34;;;;;;;1.85;0.45;;;;;;;19.72;45.67;101524.50;5185277;28;20052;-79
2022/07/05 04:29:05;;;;;;;0.68;0.68;;;;;;;19.74;45.41;101529.78;5187054;28;20033;-79
2022/07/05 04:31:36;;;;;;;0.57;0.45;;;;;;;19.72;45.47;101523.66;5191989;28;20052;-79
2022/07/05 04:34:08;;;;;;;0.20;0.20;;;;;;;19.70;45.54;101525.53;5203504;28;20032;-79
2022/07/05 04:36:40;;;;;;;0.40;0.40;;;;;;;19.70;45.64;101529.06;5184284;28;20038;-79
2022/07/05 04:39:10;;;;;;;0.30;0.30;;;;;;;19.70;45.60;101536.19;5218339;28;20920;-79
2022/07/05 04:41:41;;;;;;;11.23;1.48;;;;;;;19.67;45.73;101535.41;5197194;28;20040;-79
2022/07/05 04:44:11;;;;;;;0.60;0.60;;;;;;;19.66;45.74;101535.50;5217932;28;20041;-79
2022/07/05 04:46:42;;;;;;;0.50;0.50;;;;;;;19.65;45.67;101539.97;5183075;28;20144;-79
2022/07/05 04:49:12;;;;;;;0.63;0.63;;;;;;;19.66;46.26;101552.34;5187088;28;20033;-78
2022/07/05 04:51:43;;;;;;;1.35;1.25;;;;;;;19.66;45.83;101546.13;5191291;28;20044;-79
2022/07/05 04:54:13;;;;;;;2.10;1.40;;;;;;;19.66;46.93;101554.13;5184424;28;20869;-78
2022/07/05 04:56:44;;;;;;;1.00;0.95;;;;;;;19.61;45.95;101551.69;5200841;28;20040;-78
2022/07/05 04:59:14;;;;;;;1.10;1.00;;;;;;;19.58;46.26;101554.53;5203362;28;20035;-79
2022/07/05 05:01:45;;;;;;;0.30;0.30;;;;;;;19.58;46.00;101548.34;5184246;28;20040;-79
2022/07/05 05:04:15;;;;;;;0.55;0.55;;;;;;;19.59;46.51;101555.38;5185682;28;20068;-79
2022/07/05 05:06:46;;;;;;;0.50;0.50;;;;;;;19.58;46.46;101553.66;5199412;28;20041;-79
2022/07/05 05:09:16;;;;;;;0.52;0.52;;;;;;;19.58;46.35;101556.31;5184715;28;20068;-78
2022/07/05 05:11:47;;;;;;;0.55;0.55;;;;;;;19.54;46.62;101555.63;5195008;28;20080;-79
2022/07/05 05:14:18;;;;;;;1.10;0.80;;;;;;;19.57;46.61;101554.59;5184636;28;20028;-79
2022/07/05 05:16:48;;;;;;;1.13;1.02;;;;;;;19.59;46.73;101560.72;5182424;28;20045;-79
2022/07/05 05:19:19;;;;;;;0.68;0.68;;;;;;;19.57;46.84;101560.78;5186513;28;20028;-79
2022/07/05 05:21:49;;;;;;;15.65;0.75;;;;;;;19.56;46.60;101560.84;5184145;28;20049;-79
2022/07/05 05:24:20;;;;;;;2.67;1.15;;;;;;;19.57;46.56;101567.91;5207885;28;20028;-79
2022/07/05 05:26:50;;;;;;;0.65;0.65;;;;;;;19.60;48.04;101565.09;5198514;28;20045;-79
2022/07/05 05:29:21;;;;;;;0.40;0.40;;;;;;;19.57;46.93;101567.91;5173495;28;20104;-79
2022/07/05 05:31:52;;;;;;;1.02;0.80;;;;;;;19.58;46.83;101570.50;5204169;28;20533;-79
2022/07/05 05:34:23;;;;;;;0.70;0.70;;;;;;;19.59;47.08;101572.19;5217808;28;20029;-79
2022/07/05 05:36:54;;;;;;;0.88;0.88;;;;;;;19.62;47.29;101565.88;5197724;28;20037;-79
2022/07/05 05:39:24;;;;;;;11.75;1.33;;;;;;;19.60;46.74;101581.06;5190374;28;20028;-79
2022/07/05 05:41:57;;;;;;;0.40;0.40;;;;;;;19.60;47.59;101583.72;5191051;28;20047;-78
2022/07/05 05:44:27;;;;;;;0.63;0.63;;;;;;;19.61;46.94;101577.47;5181118;28;20029;-79
2022/07/05 05:47:00;;;;;;;5.18;1.20;;;;;;;19.64;47.20;101590.59;5182095;28;20389;-79
2022/07/05 05:49:31;;;;;;;0.50;0.50;;;;;;;19.63;47.01;101583.56;5187437;28;20116;-79
2022/07/05 05:52:02;;;;;;;0.32;0.32;;;;;;;19.59;47.62;101585.50;5200802;28;20096;-80
2022/07/05 05:54:32;;;;;;;0.40;0.40;;;;;;;19.61;47.01;101588.13;5200203;28;20083;-79
2022/07/05 05:57:03;;;;;;;0.20;0.20;;;;;;;19.60;47.42;101583.72;5183982;28;20386;-80
2022/07/05 05:59:34;;;;;;;0.20;0.20;;;;;;;19.61;47.03;101590.78;5180978;28;20127;-80
2022/07/05 06:02:04;;;;;;;0.50;0.50;;;;;;;19.65;46.83;101592.31;5201770;28;20514;-80
2022/07/05 06:04:37;;;;;;;;;;;;;;;19.64;48.55;101594.13;5185755;28;20398;-80
2022/07/05 06:07:08;;;;;;;0.65;0.65;;;;;;;19.66;47.37;101596.72;5200695;28;19916;-80
2022/07/05 06:09:38;;;;;;;0.47;0.47;;;;;;;19.71;47.85;101596.47;5185096;28;20040;-80
2022/07/05 06:12:09;;;;;;;0.45;0.45;;;;;;;19.68;48.26;101594.84;5187124;28;20655;-80
2022/07/05 06:14:39;;;;;;;0.30;0.30;;;;;;;19.67;48.14;101604.63;5187295;28;20532;-80
2022/07/05 06:17:10;;;;;;;0.43;0.43;;;;;;;19.71;49.19;101607.13;5215120;28;20033;-80
2022/07/05 06:19:41;;;;;;;0.25;0.25;;;;;;;19.73;48.48;101606.09;5207288;28;20104;-80
2022/07/05 06:22:11;;;;;;;0.52;0.52;;;;;;;19.71;48.33;101612.44;5182886;28;20513;-80
2022/07/05 06:24:42;;;;;;;1.27;1.17;;;;;;;19.74;48.06;101610.50;5184699;28;20026;-80
2022/07/05 06:27:12;;;;;;;0.75;0.50;;;;;;;19.78;48.57;101611.19;5181140;28;20047;-80
2022/07/05 06:29:43;;;;;;;0.40;0.40;;;;;;;19.78;48.00;101613.84;5188992;28;20505;-80
2022/07/05 06:32:13;;;;;;;0.32;0.32;;;;;;;19.81;48.00;101624.34;5202992;28;20120;-80
2022/07/05 06:34:44;;;;;;;0.50;0.50;;;;;;;19.79;48.41;101615.59;5199720;28;20122;-80
2022/07/05 06:37:14;;;;;;;0.20;0.20;;;;;;;19.89;49.50;101621.31;5187604;28;20032;-80
2022/07/05 06:39:45;;;;;;;0.30;0.30;;;;;;;19.81;47.81;101619.03;5193580;28;20483;-80
2022/07/05 06:42:16;;;;;;;0.40;0.40;;;;;;;19.85;48.01;101623.28;5202697;28;20452;-80
2022/07/05 06:44:46;;;;;;;0.30;0.30;;;;;;;19.85;47.75;101620.63;5186662;28;20600;-80
2022/07/05 06:47:16;;;;;;;0.57;0.40;;;;;;;19.90;47.98;101618.59;5200793;28;20107;-80
2022/07/05 06:49:47;;;;;;;0.50;0.50;;;;;;;19.96;47.95;101620.03;5200550;28;20033;-80
2022/07/05 06:52:17;;;;;;;0.40;0.40;;;;;;;19.96;47.82;101622.72;5191298;28;20500;-80
2022/07/05 06:54:48;;;;;;;0.30;0.30;;;;;;;19.94;47.53;101625.47;5176545;28;20033;-80
2022/07/05 06:57:20;;;;;;;0.20;0.20;;;;;;;19.95;47.54;101621.88;5206427;28;20062;-80
2022/07/05 06:59:51;;;;;;;0.30;0.30;;;;;;;19.94;47.98;101617.47;5186985;28;20029;-80
2022/07/05 07:02:22;;;;;;;0.70;0.70;;;;;;;20.00;47.17;101624.28;5202287;28;20048;-80
2022/07/05 07:04:52;;;;;;;0.40;0.40;;;;;;;20.05;48.29;101627.56;5208589;28;20083;-80
2022/07/05 07:10:12;;;;;;;0.60;0.60;;;;;;;20.05;47.39;101626.72;5202839;28;20519;-80
2022/07/05 07:12:42;;;;;;;0.22;0.22;;;;;;;20.05;47.11;101627.56;5185098;28;20136;-78
2022/07/05 07:15:13;;;;;;;0.70;0.30;;;;;;;20.09;47.52;101628.25;5169119;28;20543;-78
2022/07/05 07:17:44;;;;;;;0.63;0.50;;;;;;;20.11;47.69;101632.59;5182658;28;20052;-77
2022/07/05 07:20:15;;;;;;;0.77;0.77;;;;;;;20.17;47.55;101630.53;5195639;28;20037;-79
2022/07/05 07:22:45;;;;;;;0.50;0.50;;;;;;;20.20;47.42;101631.22;5220638;28;20128;-79
2022/07/05 07:25:17;;;;;;;0.57;0.57;;;;;;;20.17;47.36;101631.38;5194197;28;20043;-78
2022/07/05 07:27:52;;;;;;;0.35;0.35;;;;;;;20.21;47.15;101626.75;5185162;28;20083;-79
2022/07/05 07:30:26;;;;;;;0.30;0.30;;;;;;;20.24;46.91;101634.56;5186324;28;20032;-79
2022/07/05 07:32:57;;;;;;;0.60;0.60;;;;;;;20.25;47.42;101637.16;5164821;28;20443;-79
2022/07/05 07:35:27;;;;;;;0.73;0.40;;;;;;;20.29;46.98;101636.06;5188672;28;20063;-79
2022/07/05 07:37:58;;;;;;;0.63;0.50;;;;;;;20.22;48.93;101634.66;5184912;28;20025;-79
2022/07/05 07:40:29;;;;;;;0.25;0.25;;;;;;;20.34;47.48;101638.47;5204201;28;20345;-79
2022/07/05 07:42:59;;;;;;;0.40;0.40;;;;;;;20.28;48.89;101641.47;5227152;28;20032;-79
2022/07/05 07:45:31;;;;;;;0.90;0.68;;;;;;;20.37;47.25;101635.63;5201369;28;20075;-79
2022/07/05 07:48:05;;;;;;;0.40;0.40;;;;;;;20.41;47.04;101636.34;5199430;28;20043;-79
2022/07/05 07:50:35;;;;;;;0.55;0.55;;;;;;;20.37;47.89;101638.28;5215298;28;20048;-79
2022/07/05 07:53:06;;;;;;;0.40;0.40;;;;;;;20.28;47.52;101644.16;5217126;28;20036;-79
2022/07/05 07:55:36;;;;;;;0.30;0.30;;;;;;;20.37;47.50;101640.97;5198436;28;20056;-79
2022/07/05 07:58:09;;;;;;;0.85;0.85;;;;;;;20.45;47.15;101641.41;5187220;28;20025;-79
2022/07/05 08:00:40;;;;;;;0.20;0.20;;;;;;;20.50;46.80;101642.97;5199915;28;20174;-79
2022/07/05 08:03:11;;;;;;;0.55;0.55;;;;;;;20.47;46.80;101649.34;5219137;28;20032;-79
2022/07/05 08:05:42;;;;;;;1.35;0.95;;;;;;;20.55;46.28;101648.91;5178790;28;20044;-79
2022/07/05 08:08:12;;;;;;;0.30;0.30;;;;;;;20.56;45.93;101646.19;5201418;28;20029;-79
2022/07/05 08:10:43;;;;;;;0.40;0.40;;;;;;;20.65;45.71;101651.94;5177701;28;20551;-80
2022/07/05 08:13:13;;;;;;;0.25;0.25;;;;;;;20.53;45.63;101650.81;5201088;28;20037;-80
2022/07/05 08:15:44;;;;;;;0.25;0.25;;;;;;;20.53;45.61;101648.16;5177511;28;20050;-80
2022/07/05 08:23:52;;;;;;;0.30;0.30;;;;;;;20.57;46.18;101655.03;5204983;28;20143;-79
2022/07/05 08:26:23;;;;;;;0.20;0.20;;;;;;;20.65;45.82;101652.78;5184304;28;20112;-79
2022/07/05 08:28:54;;;;;;;2.28;0.47;;;;;;;20.69;45.33;101642.81;5199507;28;20336;-79
2022/07/05 08:31:37;;;;;;;0.32;0.32;;;;;;;20.59;44.96;101645.13;5184474;28;20227;-79
2022/07/05 08:34:08;;;;;;;0.40;0.40;;;;;;;20.61;44.58;101635.25;5202534;28;20576;-79
2022/07/05 08:36:40;;;;;;;0.20;0.20;;;;;;;20.67;44.83;101637.59;5184578;28;20192;-79
2022/07/05 08:39:11;;;;;;;1.65;1.10;;;;;;;20.69;43.50;101634.81;5188016;28;20112;-79
2022/07/05 08:41:46;;;;;;;0.35;0.35;;;;;;;20.55;43.90;101640.91;5201203;28;20678;-79
2022/07/05 08:44:21;;;;;;;0.30;0.30;;;;;;;20.51;44.09;101640.22;5187435;28;20035;-79
2022/07/05 08:46:53;;;;;;;0.25;0.25;;;;;;;20.58;44.41;101630.09;5202712;28;20036;-79
2022/07/05 08:49:26;;;;;;;0.20;0.20;;;;;;;20.69;43.75;101635.69;5198041;28;20033;-79
2022/07/05 08:51:57;;;;;;;0.30;0.30;;;;;;;20.74;43.94;101633.66;5198278;28;20616;-79
2022/07/05 08:54:28;;;;;;;0.40;0.40;;;;;;;20.81;43.97;101635.97;5190592;28;20040;-79
2022/07/05 08:57:04;;;;;;;0.40;0.40;;;;;;;20.84;44.23;101641.16;5214722;28;20040;-79
2022/07/05 08:59:37;;;;;;;0.20;0.20;;;;;;;20.81;44.11;101641.31;5205861;28;20033;-80
2022/07/05 09:02:15;;;;;;;0.40;0.40;;;;;;;20.88;44.21;101643.56;5185043;28;20036;-77
2022/07/05 09:04:49;;;;;;;0.30;0.30;;;;;;;20.99;44.42;101642.94;5201432;28;20025;-77
2022/07/05 09:07:20;;;;;;;0.20;0.20;;;;;;;21.08;44.37;101633.56;5183132;28;20094;-79
2022/07/05 09:09:51;;;;;;;0.35;0.35;;;;;;;21.09;43.83;101645.94;5186557;28;20436;-79
2022/07/05 09:12:22;;;;;;;0.32;0.32;;;;;;;21.18;44.19;101650.75;5190076;28;20049;-79
2022/07/05 09:14:54;;;;;;;0.40;0.40;;;;;;;21.30;44.34;101646.53;5206335;28;20477;-79
2022/07/05 09:17:28;;;;;;;0.98;0.88;;;;;;;21.41;43.83;101645.91;5178524;28;20122;-79
2022/07/05 09:20:14;;;;;;;0.20;0.20;;;;;;;21.45;43.90;101649.25;5188581;28;20048;-79
2022/07/05 09:22:52;;;;;;;1.20;0.77;;;;;;;21.46;43.56;101642.97;5199151;28;20095;-80
2022/07/05 09:25:30;;;;;;;4.95;1.85;;;;;;;21.52;43.50;101650.63;5182722;28;20105;-79
2022/07/05 09:28:08;;;;;;;0.47;0.47;;;;;;;21.65;43.43;101643.63;5186570;28;20116;-79
2022/07/05 09:30:41;;;;;;;0.20;0.20;;;;;;;21.61;43.55;101643.91;5182683;28;20048;-79
2022/07/05 09:33:17;;;;;;;0.20;0.20;;;;;;;21.68;43.54;101642.59;5201827;28;20111;-79
2022/07/05 09:35:57;;;;;;;0.22;0.22;;;;;;;21.65;43.61;101643.63;5190656;28;20041;-79
2022/07/05 09:38:29;;;;;;;0.30;0.20;;;;;;;21.56;43.38;101644.16;5217183;28;20032;-79
2022/07/05 09:41:02;;;;;;;0.30;0.30;;;;;;;21.62;42.80;101649.16;5198839;28;20056;-79
2022/07/05 09:43:33;;;;;;;0.20;0.20;;;;;;;21.70;42.86;101646.88;5202119;28;20033;-79
2022/07/05 09:46:04;;;;;;;0.28;0.28;;;;;;;21.83;42.90;101648.84;5200150;28;20316;-79
2022/07/05 09:48:51;;;;;;;0.55;0.55;;;;;;;21.98;42.11;101641.72;5180968;28;20098;-79
2022/07/05 09:51:22;;;;;;;0.30;0.30;;;;;;;21.97;40.94;101646.19;5199185;28;20538;-79
2022/07/05 09:53:55;;;;;;;0.30;0.30;;;;;;;22.00;42.07;101646.00;5201270;28;20041;-79
2022/07/05 09:56:29;;;;;;;0.30;0.30;;;;;;;22.13;41.84;101642.56;5214075;28;20065;-79
2022/07/05 09:59:13;;;;;;;0.28;0.28;;;;;;;22.16;41.78;101645.91;5177227;28;20076;-79
2022/07/05 10:01:43;;;;;;;0.50;0.50;;;;;;;22.09;42.29;101654.41;5181013;28;20045;-79
2022/07/05 10:04:14;;;;;;;0.30;0.30;;;;;;;22.17;42.67;101644.09;5180089;28;20043;-80
2022/07/05 10:06:48;;;;;;;0.68;0.68;;;;;;;22.20;42.47;101641.22;5190695;28;20039;-79
2022/07/05 10:09:19;;;;;;;0.20;0.20;;;;;;;22.27;42.26;101653.25;5196928;28;20382;-82
2022/07/05 10:11:50;;;;;;;0.28;0.28;;;;;;;22.33;42.37;101649.34;5207689;28;20079;-80
2022/07/05 10:14:21;;;;;;;0.20;0.20;;;;;;;22.33;42.12;101655.56;5190219;28;20060;-79
2022/07/05 10:16:59;;;;;;;0.30;0.30;;;;;;;22.44;41.74;101646.91;5191471;28;20104;-78
2022/07/05 10:19:37;;;;;;;3.45;0.98;;;;;;;22.43;41.35;101652.34;5207708;28;20048;-78
2022/07/05 10:22:08;;;;;;;0.30;0.30;;;;;;;22.43;41.44;101649.69;5197722;28;20561;-78
2022/07/05 10:24:40;;;;;;;0.20;0.20;;;;;;;22.41;40.33;101651.59;5191848;28;20489;-79
2022/07/05 10:27:12;;;;;;;0.55;0.55;;;;;;;22.50;40.57;101648.34;5194984;28;21632;-78
2022/07/05 10:29:43;;;;;;;0.20;0.20;;;;;;;22.58;39.85;101650.50;5225983;28;20143;-78
2022/07/05 10:32:15;;;;;;;0.15;0.15;;;;;;;22.51;40.04;101649.19;5189579;28;20555;-78
2022/07/05 10:34:47;;;;;;;0.47;0.47;;;;;;;22.45;40.21;101637.06;5224448;28;20033;-78
2022/07/05 10:37:27;;;;;;;0.35;0.35;;;;;;;22.43;40.18;101639.00;5213935;28;20048;-79
2022/07/05 10:39:59;;;;;;;0.20;0.20;;;;;;;22.39;39.82;101641.00;5183847;28;20237;-79
2022/07/05 10:42:36;;;;;;;0.23;0.23;;;;;;;22.39;39.57;101642.75;5194716;28;20051;-79
2022/07/05 10:45:30;;;;;;;0.22;0.22;;;;;;;22.35;39.79;101642.09;5200370;28;20693;-79
2022/07/05 10:48:24;;;;;;;0.35;0.35;;;;;;;22.41;39.03;101641.75;5204119;28;20068;-79
2022/07/05 10:50:59;;;;;;;0.75;0.75;;;;;;;22.47;38.78;101629.81;5181391;28;20136;-79
2022/07/05 10:53:36;;;;;;;0.20;0.20;;;;;;;22.51;37.79;101636.69;5195471;28;20036;-79
2022/07/05 10:56:07;;;;;;;0.20;0.20;;;;;;;22.60;38.68;101625.38;5206518;28;20052;-79
2022/07/05 10:58:45;;;;;;;0.25;0.25;;;;;;;22.61;38.61;101632.44;5194841;28;20048;-78
2022/07/05 11:01:18;;;;;;;0.20;0.20;;;;;;;22.74;38.46;101629.84;5225538;28;20172;-79
2022/07/05 11:04:19;;;;;;;0.30;0.30;;;;;;;22.66;37.96;101628.63;5192121;28;20454;-79
2022/07/05 11:06:49;;;;;;;0.30;0.30;;;;;;;22.66;37.96;101634.84;5185905;28;20396;-79
2022/07/05 11:09:20;;;;;;;0.28;0.28;;;;;;;22.72;37.36;101622.88;5213968;28;20037;-79
2022/07/05 11:11:57;;;;;;;0.68;0.68;;;;;;;22.75;36.31;101617.34;5213425;28;20045;-78
2022/07/05 11:14:30;;;;;;;0.45;0.45;;;;;;;22.79;37.30;101621.53;5203364;28;20051;-79
2022/07/05 11:17:15;;;;;;;0.93;0.73;;;;;;;22.94;37.55;101625.03;5208253;28;20079;-79
2022/07/05 11:20:14;;;;;;;0.52;0.50;;;;;;;23.15;36.57;101628.13;5209787;28;20039;-79
2022/07/05 11:23:06;;;;;;;0.20;0.20;;;;;;;23.17;37.67;101625.34;5183740;28;20060;-79
2022/07/05 11:25:40;;;;;;;0.30;0.30;;;;;;;23.23;36.94;101623.16;5188205;28;20075;-79
2022/07/05 11:28:19;;;;;;;4.97;1.17;;;;;;;23.35;37.31;101623.28;5223060;28;20039;-79
2022/07/05 11:30:51;;;;;;;0.20;0.20;;;;;;;23.50;36.16;101619.59;5191848;28;20045;-79
2022/07/05 11:33:36;;;;;;;0.70;0.70;;;;;;;23.61;36.39;101623.34;5203552;28;20413;-78
2022/07/05 11:36:21;;;;;;;0.28;0.28;;;;;;;23.66;36.29;101618.53;5216172;28;20288;-79
2022/07/05 11:39:16;;;;;;;0.20;0.20;;;;;;;23.72;37.02;101615.44;5181852;28;20454;-79
2022/07/05 11:41:48;;;;;;;0.40;0.40;;;;;;;23.79;37.02;101614.03;5185919;28;20449;-79
2022/07/05 11:44:18;;;;;;;0.20;0.20;;;;;;;23.80;37.04;101621.13;5185616;28;20025;-79
2022/07/05 11:46:52;;;;;;;0.20;0.20;;;;;;;23.95;36.88;101621.03;5165863;28;20043;-79
2022/07/05 11:49:23;;;;;;;0.35;0.35;;;;;;;23.95;36.92;101621.03;5185805;28;20366;-80
2022/07/05 11:51:58;;;;;;;0.40;0.40;;;;;;;23.99;36.98;101610.00;5187836;28;20104;-79
2022/07/05 11:54:32;;;;;;;0.20;0.20;;;;;;;24.07;36.89;101604.13;5201074;28;20037;-79
2022/07/05 11:57:08;;;;;;;0.22;0.22;;;;;;;24.03;37.37;101614.19;5208242;28;20071;-79